Time;durP1;ratioP1;P1;durP2;ratioP2;P2;SDS_P1;SDS_P2;PMS_P1;PMS_P2;Temp;Humidity;BMP_temperature;BMP_pressure;BME280_temperature;BME280_humidity;BME280_pressure;Samples;Min_cycle;Max_cycle;Signal;HPM_P1;HPM_P2
2023/05/03 00:02:11;;;;;;;4.03;1.98;;;;;;;5.61;100.00;103027.84;5025665;28;20033;-73
2023/05/03 00:04:37;;;;;;;3.05;1.92;;;;;;;5.62;100.00;103022.56;5024225;28;20037;-73
2023/05/03 00:07:03;;;;;;;3.90;1.80;;;;;;;5.66;100.00;103026.16;5020339;28;20032;-73
2023/05/03 00:09:29;;;;;;;3.35;2.28;;;;;;;5.67;100.00;103020.03;5025979;28;20472;-73
2023/05/03 00:11:54;;;;;;;3.55;1.98;;;;;;;5.68;100.00;103016.53;5023938;28;20526;-73
2023/05/03 00:14:20;;;;;;;3.15;2.08;;;;;;;5.71;100.00;103024.44;5020869;28;20048;-73
2023/05/03 00:16:45;;;;;;;2.70;2.03;;;;;;;5.73;100.00;103013.94;5024184;28;20071;-73
2023/05/03 00:19:11;;;;;;;3.65;1.95;;;;;;;5.75;100.00;103027.97;5022167;28;20038;-73
2023/05/03 00:21:36;;;;;;;3.10;1.85;;;;;;;5.78;100.00;103034.13;5025623;28;20033;-73
2023/05/03 00:24:02;;;;;;;2.58;2.00;;;;;;;5.80;100.00;103027.16;5023382;28;20124;-73
2023/05/03 00:26:28;;;;;;;2.22;2.00;;;;;;;5.80;100.00;103021.91;5024384;28;20060;-74
2023/05/03 00:28:54;;;;;;;3.25;2.20;;;;;;;5.81;100.00;103028.91;5008666;28;20041;-73
2023/05/03 00:31:19;;;;;;;4.22;2.10;;;;;;;5.84;100.00;103023.69;5009006;28;20028;-73
2023/05/03 00:33:45;;;;;;;4.25;2.53;;;;;;;5.85;100.00;103027.19;5028468;28;20552;-74
2023/05/03 00:36:12;;;;;;;3.10;2.30;;;;;;;5.88;100.00;103028.97;5028531;28;20033;-74
2023/05/03 00:38:39;;;;;;;2.28;2.03;;;;;;;5.89;100.00;103023.72;5024218;28;20047;-74
2023/05/03 00:41:05;;;;;;;4.40;2.30;;;;;;;5.92;100.00;103028.13;5009325;28;20048;-74
2023/05/03 00:43:31;;;;;;;3.13;2.28;;;;;;;5.93;100.00;103022.88;5027021;28;20029;-74
2023/05/03 00:46:04;;;;;;;3.40;2.45;;;;;;;5.95;100.00;103021.16;5028724;28;20032;-74
2023/05/03 00:48:29;;;;;;;4.38;2.50;;;;;;;5.96;100.00;103016.78;5025056;28;20124;-74
2023/05/03 00:50:59;;;;;;;4.38;2.50;;;;;;;5.98;100.00;103022.91;5028867;28;20085;-74
2023/05/03 00:53:25;;;;;;;4.28;2.45;;;;;;;6.01;100.00;103022.06;5025689;28;20524;-73
2023/05/03 00:55:52;;;;;;;3.88;2.35;;;;;;;6.02;100.00;103026.47;5024942;28;20045;-73
2023/05/03 00:58:18;;;;;;;2.45;2.25;;;;;;;6.01;100.00;103025.59;5025998;28;20052;-73
2023/05/03 01:00:44;;;;;;;2.45;2.25;;;;;;;6.05;100.00;103022.13;5027480;28;20032;-73
2023/05/03 01:03:10;;;;;;;2.03;1.90;;;;;;;6.05;100.00;103016.88;5026656;28;20099;-73
2023/05/03 01:05:52;;;;;;;3.28;2.25;;;;;;;6.07;100.00;103025.69;5023665;28;20142;-73
2023/05/03 01:08:31;;;;;;;2.90;2.03;;;;;;;6.09;100.00;103023.94;5023460;28;20068;-73
2023/05/03 01:11:18;;;;;;;2.92;2.13;;;;;;;6.10;100.00;103020.44;5037639;28;20036;-73
2023/05/03 01:14:07;;;;;;;2.47;2.28;;;;;;;6.09;100.00;103013.41;5023939;28;20563;-73
2023/05/03 01:16:37;;;;;;;3.67;2.10;;;;;;;6.09;100.00;103018.69;5025345;28;20041;-73
2023/05/03 01:19:12;;;;;;;4.65;2.70;;;;;;;6.13;100.00;103016.06;5026512;28;20095;-73
2023/05/03 01:21:43;;;;;;;2.95;2.20;;;;;;;6.14;100.00;103016.09;5026411;28;20047;-73
2023/05/03 01:24:21;;;;;;;4.38;2.17;;;;;;;6.15;100.00;103015.22;5024874;28;20041;-73
2023/05/03 01:26:47;;;;;;;3.38;1.98;;;;;;;6.16;100.00;103013.47;5011192;28;20043;-73
2023/05/03 01:29:13;;;;;;;2.05;1.70;;;;;;;6.17;100.00;103008.22;5028830;28;20626;-73
2023/05/03 01:31:54;;;;;;;2.00;1.80;;;;;;;6.20;100.00;103008.25;5028109;28;21439;-74
2023/05/03 01:34:43;;;;;;;4.72;1.95;;;;;;;6.21;100.00;103002.09;5025030;28;20055;-74
2023/05/03 01:37:09;;;;;;;2.78;1.83;;;;;;;6.21;100.00;102999.47;5025346;28;20626;-74
2023/05/03 01:39:52;;;;;;;1.83;1.65;;;;;;;6.22;100.00;103003.88;5025304;28;20080;-73
2023/05/03 01:42:19;;;;;;;1.95;1.70;;;;;;;6.23;100.00;103005.63;5010453;28;20029;-73
2023/05/03 01:44:46;;;;;;;2.88;1.80;;;;;;;6.24;100.00;103001.25;5027407;28;20041;-73
2023/05/03 01:47:13;;;;;;;3.08;2.10;;;;;;;6.23;100.00;103000.34;5022851;28;20029;-73
2023/05/03 01:49:39;;;;;;;1.77;1.65;;;;;;;6.22;100.00;103003.88;5027464;28;20032;-74
2023/05/03 01:52:05;;;;;;;3.47;1.83;;;;;;;6.23;100.00;103005.63;5024224;28;20068;-74
2023/05/03 01:54:31;;;;;;;2.97;2.00;;;;;;;6.24;100.00;103002.16;5026234;28;20049;-74
2023/05/03 01:56:56;;;;;;;3.45;2.20;;;;;;;6.25;100.00;102997.75;5025925;28;20569;-74
2023/05/03 01:59:22;;;;;;;6.05;2.33;;;;;;;6.24;100.00;102996.88;5023622;28;20042;-74
2023/05/03 02:01:47;;;;;;;2.35;2.15;;;;;;;6.24;100.00;102996.00;5024253;28;20029;-73
2023/05/03 02:04:13;;;;;;;4.43;2.38;;;;;;;6.22;100.00;103000.38;5023009;28;20534;-74
2023/05/03 02:06:38;;;;;;;3.30;2.40;;;;;;;6.20;100.00;103002.09;5025338;28;20044;-74
2023/05/03 02:09:04;;;;;;;5.68;2.60;;;;;;;6.20;100.00;102997.72;5024576;28;20040;-74
2023/05/03 02:11:29;;;;;;;4.22;2.13;;;;;;;6.19;100.00;102992.44;5026923;28;20043;-74
2023/05/03 02:13:55;;;;;;;5.70;2.38;;;;;;;6.18;100.00;102995.94;5023037;28;20483;-74
2023/05/03 02:16:20;;;;;;;2.53;2.28;;;;;;;6.17;100.00;102988.94;5024644;28;20040;-74
2023/05/03 02:18:46;;;;;;;4.07;2.10;;;;;;;6.16;100.00;102992.44;5024418;28;20921;-73
2023/05/03 02:21:12;;;;;;;3.35;1.85;;;;;;;6.16;100.00;102989.81;5023845;28;20049;-74
2023/05/03 02:23:38;;;;;;;6.82;2.30;;;;;;;6.16;100.00;102990.66;5025043;28;21317;-74
2023/05/03 02:26:04;;;;;;;4.50;2.00;;;;;;;6.16;100.00;102990.66;5025079;28;20116;-73
2023/05/03 02:28:29;;;;;;;4.75;2.13;;;;;;;6.17;100.00;102988.94;5025249;28;20514;-73
2023/05/03 02:30:55;;;;;;;4.25;2.03;;;;;;;6.17;100.00;102988.94;5024023;28;20045;-73
2023/05/03 02:33:21;;;;;;;2.75;2.00;;;;;;;6.18;100.00;102991.56;5021914;28;20190;-73
2023/05/03 02:35:46;;;;;;;2.20;1.58;;;;;;;6.18;100.00;103002.09;5025105;28;20507;-73
2023/05/03 02:38:12;;;;;;;3.33;1.88;;;;;;;6.19;100.00;103000.34;5023661;28;20024;-74
2023/05/03 02:40:37;;;;;;;2.03;1.75;;;;;;;6.17;100.00;102994.19;5023258;28;20037;-73
2023/05/03 02:43:04;;;;;;;2.63;1.88;;;;;;;6.16;100.00;102993.28;5024614;28;21457;-73
2023/05/03 02:45:29;;;;;;;3.15;1.95;;;;;;;6.17;100.00;102999.44;5023568;28;20044;-73
2023/05/03 02:47:55;;;;;;;3.10;2.10;;;;;;;6.16;100.00;102992.44;5022472;28;20087;-74
2023/05/03 02:50:20;;;;;;;4.95;2.10;;;;;;;6.15;100.00;102990.69;5024673;28;20041;-74
2023/05/03 02:52:46;;;;;;;3.65;2.15;;;;;;;6.13;100.00;102992.38;5024097;28;20041;-74
2023/05/03 02:55:11;;;;;;;4.40;2.38;;;;;;;6.08;100.00;102976.59;5023602;28;20624;-73
2023/05/03 02:57:38;;;;;;;2.50;1.95;;;;;;;6.04;100.00;102970.41;5021049;28;20045;-74
2023/05/03 03:00:06;;;;;;;4.97;2.20;;;;;;;6.03;100.00;102962.50;5025382;28;20040;-73
2023/05/03 03:02:32;;;;;;;2.13;1.92;;;;;;;6.01;100.00;102957.22;5025581;28;20052;-74
2023/05/03 03:04:58;;;;;;;3.20;1.98;;;;;;;6.03;100.00;102959.88;5025963;28;20029;-74
2023/05/03 03:07:23;;;;;;;4.03;1.77;;;;;;;6.03;100.00;102963.41;5024087;28;20144;-74
2023/05/03 03:09:49;;;;;;;1.88;1.65;;;;;;;6.05;100.00;102959.03;5018742;28;20045;-73
2023/05/03 03:12:15;;;;;;;3.13;2.30;;;;;;;6.07;100.00;102972.19;5024762;28;20817;-73
2023/05/03 03:14:41;;;;;;;3.55;2.13;;;;;;;6.07;100.00;102967.81;5024164;28;20539;-73
2023/05/03 03:17:07;;;;;;;4.80;2.30;;;;;;;6.06;100.00;102971.31;5023482;28;21025;-73
2023/05/03 03:19:33;;;;;;;3.58;2.15;;;;;;;6.05;100.00;102966.91;5026153;28;20041;-73
2023/05/03 03:21:58;;;;;;;4.07;2.00;;;;;;;6.06;100.00;102966.03;5026114;28;20089;-73
2023/05/03 03:24:24;;;;;;;3.33;1.92;;;;;;;6.07;100.00;102972.19;5023809;28;20036;-73
2023/05/03 03:26:50;;;;;;;3.33;2.10;;;;;;;6.09;100.00;102979.22;5026540;28;20044;-73
2023/05/03 03:29:15;;;;;;;4.20;2.10;;;;;;;6.11;100.00;102979.25;5025206;28;20040;-73
2023/05/03 03:31:41;;;;;;;2.45;2.10;;;;;;;6.12;100.00;102978.38;5024810;28;20041;-73
2023/05/03 03:34:06;;;;;;;2.88;2.10;;;;;;;6.08;100.00;102974.84;5026227;28;20045;-74
2023/05/03 03:36:32;;;;;;;2.85;2.20;;;;;;;6.09;100.00;102976.59;5025969;28;20049;-74
2023/05/03 03:38:57;;;;;;;2.55;2.35;;;;;;;6.09;100.00;102987.13;5025246;28;20111;-74
2023/05/03 03:41:23;;;;;;;4.47;2.28;;;;;;;6.11;100.00;102982.75;5023006;28;20099;-74
2023/05/03 03:43:48;;;;;;;2.33;2.13;;;;;;;6.11;100.00;102988.00;5024390;28;20675;-74
2023/05/03 03:46:14;;;;;;;3.55;2.10;;;;;;;6.12;100.00;102994.16;5025011;28;20094;-74
2023/05/03 03:48:39;;;;;;;4.60;2.30;;;;;;;6.13;100.00;102987.13;5025494;28;20095;-74
2023/05/03 03:51:05;;;;;;;2.55;2.35;;;;;;;6.13;100.00;102992.38;5022516;28;20040;-73
2023/05/03 03:53:31;;;;;;;3.22;2.60;;;;;;;6.14;100.00;103000.31;5021848;28;20036;-73
2023/05/03 03:55:56;;;;;;;3.25;1.90;;;;;;;6.15;100.00;103001.19;5023147;28;20082;-74
2023/05/03 03:58:21;;;;;;;2.63;2.10;;;;;;;6.16;100.00;103002.94;5024404;28;20128;-73
2023/05/03 04:00:47;;;;;;;4.55;2.40;;;;;;;6.17;100.00;103002.06;5020685;28;20217;-73
2023/05/03 04:03:13;;;;;;;2.85;2.38;;;;;;;6.18;100.00;103006.47;5024652;28;20099;-74
2023/05/03 04:05:38;;;;;;;3.38;2.15;;;;;;;6.19;100.00;103010.84;5025938;28;20917;-74
2023/05/03 04:08:04;;;;;;;2.17;1.98;;;;;;;6.17;100.00;103005.59;5028867;28;20037;-74
2023/05/03 04:10:29;;;;;;;2.35;2.15;;;;;;;6.17;100.00;103010.88;5023646;28;20056;-74
2023/05/03 04:12:55;;;;;;;3.10;2.05;;;;;;;6.18;100.00;103011.72;5027961;28;20476;-74
2023/05/03 04:15:20;;;;;;;2.90;2.10;;;;;;;6.17;100.00;103010.88;5024389;28;20102;-74
2023/05/03 04:17:47;;;;;;;2.08;1.65;;;;;;;6.17;100.00;103017.84;5026984;28;20033;-74
2023/05/03 04:20:12;;;;;;;2.28;1.90;;;;;;;6.18;100.00;103022.25;5029540;28;20037;-74
2023/05/03 04:22:39;;;;;;;2.33;2.13;;;;;;;6.18;100.00;103015.25;5026018;28;20032;-73
2023/05/03 04:25:07;;;;;;;2.83;1.95;;;;;;;6.17;100.00;103015.22;5027501;28;20551;-73
2023/05/03 04:27:33;;;;;;;1.17;1.15;;;;;;;6.15;100.00;103011.72;5027457;28;20100;-73
2023/05/03 04:29:58;;;;;;;1.23;1.10;;;;;;;6.17;100.00;103021.38;5011621;28;20044;-73
2023/05/03 04:32:24;;;;;;;1.58;1.30;;;;;;;6.20;100.00;103020.50;5028476;28;20045;-73
2023/05/03 04:34:53;;;;;;;2.83;1.40;;;;;;;6.22;100.00;103021.41;5026618;28;21598;-73
2023/05/03 04:37:20;;;;;;;2.92;1.50;;;;;;;6.24;100.00;103019.66;5027205;28;20144;-73
2023/05/03 04:39:46;;;;;;;2.15;1.42;;;;;;;6.27;100.00;103024.97;5028165;28;20047;-73
2023/05/03 04:42:14;;;;;;;2.63;1.70;;;;;;;6.28;100.00;103029.34;4994545;28;20051;-74
2023/05/03 04:44:43;;;;;;;2.70;1.70;;;;;;;6.29;100.00;103024.97;5027622;28;20098;-73
2023/05/03 04:47:09;;;;;;;2.58;1.60;;;;;;;6.28;100.00;103032.00;5027343;28;20043;-73
2023/05/03 04:49:35;;;;;;;3.65;1.90;;;;;;;6.29;100.00;103039.00;5026743;28;20038;-73
2023/05/03 04:52:00;;;;;;;2.83;1.70;;;;;;;6.29;100.00;103039.00;5025683;28;20459;-73
2023/05/03 04:54:26;;;;;;;2.15;1.60;;;;;;;6.28;100.00;103041.63;5026632;28;21007;-73
2023/05/03 04:56:53;;;;;;;2.35;2.00;;;;;;;6.29;100.00;103041.63;5024231;28;20484;-73
2023/05/03 04:59:18;;;;;;;2.97;1.92;;;;;;;6.30;100.00;103040.75;5026308;28;21119;-73
2023/05/03 05:01:44;;;;;;;4.85;1.88;;;;;;;6.32;100.00;103036.38;5022558;28;20032;-73
2023/05/03 05:04:09;;;;;;;2.25;1.77;;;;;;;6.34;100.00;103039.03;5024151;28;20034;-72
2023/05/03 05:06:35;;;;;;;3.25;1.90;;;;;;;6.35;100.00;103041.69;5025758;28;20045;-73
2023/05/03 05:09:00;;;;;;;2.35;1.60;;;;;;;6.38;100.00;103046.09;5027113;28;20044;-73
2023/05/03 05:11:26;;;;;;;1.85;1.70;;;;;;;6.39;100.00;103042.59;5025545;28;21330;-73
2023/05/03 05:13:52;;;;;;;2.35;1.70;;;;;;;6.42;100.00;103047.00;5023744;28;20033;-73
2023/05/03 05:16:18;;;;;;;1.52;1.42;;;;;;;6.45;100.00;103047.00;5025212;28;20099;-73
2023/05/03 05:18:43;;;;;;;2.53;1.60;;;;;;;6.49;100.00;103049.66;5025452;28;20037;-73
2023/05/03 05:21:09;;;;;;;1.88;1.25;;;;;;;6.52;100.00;103048.81;5025853;28;20033;-73
2023/05/03 05:23:35;;;;;;;2.42;1.83;;;;;;;6.56;100.00;103049.72;5009852;28;20664;-73
2023/05/03 05:26:00;;;;;;;1.67;1.55;;;;;;;6.59;100.00;103045.34;5022708;28;20047;-73
2023/05/03 05:28:27;;;;;;;2.67;1.48;;;;;;;6.59;100.00;103045.34;5022191;28;20037;-73
2023/05/03 05:30:52;;;;;;;2.05;1.33;;;;;;;6.62;100.00;103052.38;5023598;28;20112;-73
2023/05/03 05:33:18;;;;;;;1.75;1.25;;;;;;;6.64;100.00;103048.91;5023301;28;20098;-73
2023/05/03 05:35:47;;;;;;;1.20;1.10;;;;;;;6.68;98.82;103055.06;5026775;28;20061;-73
2023/05/03 05:38:12;;;;;;;1.63;1.20;;;;;;;6.70;98.66;103050.69;5026100;28;21719;-73
2023/05/03 05:40:38;;;;;;;1.83;1.15;;;;;;;6.74;98.03;103054.22;5025339;28;20068;-73
2023/05/03 05:43:03;;;;;;;1.35;1.25;;;;;;;6.78;99.06;103050.72;5027153;28;20033;-73
2023/05/03 05:45:30;;;;;;;1.85;1.30;;;;;;;6.84;98.66;103057.78;5027552;28;21965;-73
2023/05/03 05:47:56;;;;;;;1.33;1.20;;;;;;;6.88;98.55;103056.94;5024007;28;20059;-73
2023/05/03 05:50:21;;;;;;;1.48;1.38;;;;;;;6.92;98.76;103056.09;5022351;28;20033;-72
2023/05/03 05:52:50;;;;;;;1.88;1.50;;;;;;;6.95;98.87;103056.09;5010106;28;20037;-72
2023/05/03 05:55:16;;;;;;;1.25;1.10;;;;;;;6.99;98.20;103059.63;5021479;28;20041;-72
2023/05/03 05:57:41;;;;;;;2.17;1.35;;;;;;;7.00;97.99;103056.13;5028633;28;20063;-72
2023/05/03 06:00:13;;;;;;;1.73;1.40;;;;;;;7.03;97.90;103054.38;5024711;28;20574;-72
2023/05/03 06:02:39;;;;;;;3.03;1.42;;;;;;;7.06;97.22;103061.41;5022899;28;20033;-73
2023/05/03 06:05:05;;;;;;;2.60;1.30;;;;;;;7.10;97.30;103060.56;5026757;28;20108;-72
2023/05/03 06:07:31;;;;;;;3.03;1.30;;;;;;;7.14;97.61;103062.31;5007206;28;20049;-73
2023/05/03 06:09:57;;;;;;;2.60;1.40;;;;;;;7.20;97.57;103054.44;5025369;28;20111;-75
2023/05/03 06:12:22;;;;;;;2.28;1.20;;;;;;;7.26;97.25;103053.63;5007118;28;20155;-73
2023/05/03 06:14:48;;;;;;;1.15;0.98;;;;;;;7.32;96.94;103050.09;5028195;28;20029;-72
2023/05/03 06:17:13;;;;;;;3.08;1.20;;;;;;;7.38;96.43;103058.03;5026372;28;20036;-72
2023/05/03 06:19:39;;;;;;;1.65;0.95;;;;;;;7.43;95.55;103053.69;5027507;28;20492;-74
2023/05/03 06:22:04;;;;;;;1.80;1.17;;;;;;;7.47;94.33;103047.53;5025210;28;20572;-73
2023/05/03 06:24:31;;;;;;;1.67;1.10;;;;;;;7.52;94.41;103049.31;5027744;28;20037;-73
2023/05/03 06:26:57;;;;;;;1.20;1.10;;;;;;;7.57;94.64;103051.06;5023235;28;20033;-72
2023/05/03 06:29:23;;;;;;;4.72;1.80;;;;;;;7.65;95.53;103047.56;5008370;28;20040;-73
2023/05/03 06:31:49;;;;;;;1.00;1.00;;;;;;;7.69;94.55;103052.84;5025375;28;20029;-73
2023/05/03 06:34:19;;;;;;;1.98;0.90;;;;;;;7.72;93.95;103057.25;5022367;28;20122;-73
2023/05/03 06:36:44;;;;;;;1.00;0.93;;;;;;;7.77;93.60;103062.50;5025540;28;20041;-73
2023/05/03 06:39:10;;;;;;;3.28;1.10;;;;;;;7.82;93.09;103058.13;5025889;28;20036;-73
2023/05/03 06:41:35;;;;;;;1.42;0.93;;;;;;;7.86;92.96;103062.56;5025793;28;20125;-73
2023/05/03 06:44:02;;;;;;;0.88;0.88;;;;;;;7.91;92.44;103066.09;5015691;28;20110;-73
2023/05/03 06:46:28;;;;;;;1.10;1.00;;;;;;;7.95;92.04;103065.19;5008552;28;20041;-73
2023/05/03 06:48:55;;;;;;;1.27;1.17;;;;;;;7.98;90.92;103067.84;5006634;28;20031;-73
2023/05/03 06:51:27;;;;;;;2.70;0.90;;;;;;;7.99;90.67;103066.97;5025652;28;20036;-73
2023/05/03 06:53:59;;;;;;;0.80;0.80;;;;;;;8.03;91.54;103067.84;5023047;28;20127;-73
2023/05/03 06:56:25;;;;;;;2.25;1.08;;;;;;;8.04;90.82;103068.72;5025580;28;20763;-73
2023/05/03 06:58:50;;;;;;;1.05;0.77;;;;;;;8.04;90.13;103059.06;5027338;28;20180;-73
2023/05/03 07:01:17;;;;;;;0.95;0.95;;;;;;;8.05;90.51;103059.94;5026588;28;20041;-73
2023/05/03 07:03:43;;;;;;;1.13;0.90;;;;;;;8.08;89.88;103060.81;4991202;28;20037;-73
2023/05/03 07:06:09;;;;;;;1.58;1.40;;;;;;;8.17;90.80;103064.34;5027071;28;20796;-72
2023/05/03 07:08:34;;;;;;;1.48;1.00;;;;;;;8.21;90.54;103061.69;5009543;28;20184;-72
2023/05/03 07:11:00;;;;;;;1.48;1.00;;;;;;;8.25;90.57;103058.19;5026889;28;20068;-72
2023/05/03 07:13:25;;;;;;;1.38;0.90;;;;;;;8.27;90.66;103064.34;5026949;28;20029;-72
2023/05/03 07:15:51;;;;;;;2.58;1.10;;;;;;;8.28;89.34;103063.44;5026738;28;20052;-72
2023/05/03 07:18:16;;;;;;;1.10;0.90;;;;;;;8.27;88.34;103055.53;5025775;28;20499;-72
2023/05/03 07:20:42;;;;;;;0.80;0.80;;;;;;;8.29;88.13;103059.06;5027074;28;20036;-72
2023/05/03 07:23:07;;;;;;;1.48;0.88;;;;;;;8.30;87.60;103055.53;5025046;28;20174;-72
2023/05/03 07:25:33;;;;;;;2.95;0.98;;;;;;;8.35;87.95;103067.00;5025950;28;20037;-72
2023/05/03 07:27:59;;;;;;;2.85;0.90;;;;;;;8.38;88.07;103058.16;5026588;28;20037;-72
2023/05/03 07:30:24;;;;;;;1.88;1.10;;;;;;;8.44;87.57;103050.22;5026165;28;20036;-72
2023/05/03 07:32:50;;;;;;;3.58;1.08;;;;;;;8.55;89.12;103064.34;5026790;28;20029;-72
2023/05/03 07:35:15;;;;;;;1.90;0.90;;;;;;;8.55;86.28;103053.78;5026891;28;20049;-72
2023/05/03 07:37:42;;;;;;;1.20;0.90;;;;;;;8.51;85.35;103054.66;5023471;28;20035;-72
2023/05/03 07:40:08;;;;;;;2.03;1.20;;;;;;;8.49;85.72;103056.41;5024248;28;20033;-72
2023/05/03 07:42:34;;;;;;;2.33;1.08;;;;;;;8.49;87.09;103045.84;5024291;28;20039;-72
2023/05/03 07:45:01;;;;;;;1.08;1.00;;;;;;;8.58;87.76;103052.00;5024098;28;20041;-72
2023/05/03 07:47:26;;;;;;;2.05;1.27;;;;;;;8.67;86.77;103057.28;5026120;28;20025;-71
2023/05/03 07:49:52;;;;;;;0.90;0.88;;;;;;;8.66;85.69;103045.84;5021127;28;20908;-73
2023/05/03 07:52:18;;;;;;;2.33;1.00;;;;;;;8.69;86.45;103043.22;5023156;28;20033;-72
2023/05/03 07:54:44;;;;;;;0.90;0.90;;;;;;;8.74;86.12;103045.84;5025422;28;20042;-73
2023/05/03 07:57:13;;;;;;;3.20;1.17;;;;;;;8.81;86.01;103039.66;5025626;28;21106;-73
2023/05/03 07:59:39;;;;;;;1.20;1.10;;;;;;;8.94;87.37;103042.25;5023784;28;20037;-73
2023/05/03 08:02:05;;;;;;;1.15;0.90;;;;;;;8.97;86.94;103039.59;5025407;28;20094;-73
2023/05/03 08:04:30;;;;;;;2.25;0.90;;;;;;;8.96;85.77;103038.72;5022012;28;20781;-73
2023/05/03 08:07:00;;;;;;;0.90;0.90;;;;;;;8.98;84.43;103040.47;5003757;28;20045;-73
2023/05/03 08:09:27;;;;;;;1.50;0.95;;;;;;;9.03;85.43;103042.22;5025374;28;20044;-73
2023/05/03 08:11:53;;;;;;;1.33;1.20;;;;;;;9.05;84.76;103044.84;5024681;28;20079;-73
2023/05/03 08:14:19;;;;;;;0.90;0.90;;;;;;;9.07;85.55;103040.44;5026951;28;20492;-73
2023/05/03 08:16:44;;;;;;;1.95;1.10;;;;;;;9.10;84.94;103038.66;5026931;28;20226;-73
2023/05/03 08:19:10;;;;;;;1.77;1.10;;;;;;;9.16;85.99;103047.44;5026774;28;20048;-73
2023/05/03 08:21:36;;;;;;;1.23;1.05;;;;;;;9.15;85.09;103051.00;5026597;28;20037;-72
2023/05/03 08:24:04;;;;;;;1.60;0.90;;;;;;;9.17;86.00;103043.91;5025267;28;22088;-72
2023/05/03 08:26:31;;;;;;;2.45;0.90;;;;;;;9.17;85.84;103051.84;5008028;28;20029;-72
2023/05/03 08:28:56;;;;;;;1.35;1.10;;;;;;;9.13;85.28;103050.09;5009639;28;20045;-73
2023/05/03 08:31:22;;;;;;;2.08;1.10;;;;;;;9.14;84.58;103049.22;5024617;28;20044;-73
2023/05/03 08:33:47;;;;;;;1.58;1.08;;;;;;;9.10;84.99;103046.59;5024391;28;20144;-72
2023/05/03 08:36:13;;;;;;;1.73;1.00;;;;;;;9.20;85.47;103049.19;5023741;28;20067;-72
2023/05/03 08:38:40;;;;;;;2.40;1.10;;;;;;;9.22;84.91;103044.78;5024202;28;20136;-72
2023/05/03 08:41:24;;;;;;;2.28;1.10;;;;;;;9.23;84.54;103049.19;5026405;28;21445;-73
2023/05/03 08:43:52;;;;;;;1.20;1.08;;;;;;;9.26;85.69;103051.78;5021990;28;20033;-73
2023/05/03 08:46:18;;;;;;;0.88;0.88;;;;;;;9.26;83.97;103056.22;5007480;28;20029;-73
2023/05/03 08:48:47;;;;;;;1.15;1.15;;;;;;;9.18;83.62;103053.59;5025075;28;20059;-73
2023/05/03 08:51:13;;;;;;;1.13;1.00;;;;;;;9.14;84.01;103049.22;5028705;28;20049;-73
2023/05/03 08:53:38;;;;;;;1.58;1.00;;;;;;;9.13;84.11;103052.72;5029902;28;20092;-72
2023/05/03 08:56:09;;;;;;;1.95;1.20;;;;;;;9.14;84.65;103049.22;5022761;28;20033;-72
2023/05/03 08:58:35;;;;;;;1.80;1.20;;;;;;;9.18;84.73;103051.84;5026281;28;20045;-73
2023/05/03 09:01:05;;;;;;;2.70;1.20;;;;;;;9.14;84.07;103055.38;5028831;28;20063;-72
2023/05/03 09:03:31;;;;;;;1.63;1.40;;;;;;;9.13;83.90;103058.03;5027569;28;20553;-73
2023/05/03 09:06:00;;;;;;;1.58;1.20;;;;;;;9.09;83.45;103058.03;5028135;28;20034;-72
2023/05/03 09:08:30;;;;;;;3.80;1.58;;;;;;;9.08;83.94;103058.94;5028416;28;20585;-72
2023/05/03 09:10:56;;;;;;;2.42;1.45;;;;;;;9.07;83.55;103065.13;5005824;28;20048;-73
2023/05/03 09:13:29;;;;;;;1.30;1.20;;;;;;;9.08;83.59;103066.88;5027715;28;20052;-73
2023/05/03 09:15:56;;;;;;;2.22;1.20;;;;;;;9.09;83.08;103062.44;5027989;28;20025;-72
2023/05/03 09:18:22;;;;;;;2.45;1.20;;;;;;;9.10;83.26;103062.44;5024781;28;20131;-73
2023/05/03 09:20:51;;;;;;;4.35;1.23;;;;;;;9.13;83.54;103064.19;5028676;28;20072;-73
2023/05/03 09:23:27;;;;;;;2.50;1.35;;;;;;;9.18;83.81;103058.88;5024338;28;20044;-73
2023/05/03 09:25:53;;;;;;;0.77;0.75;;;;;;;9.26;83.30;103064.16;5026742;28;20549;-73
2023/05/03 09:28:19;;;;;;;3.63;1.20;;;;;;;9.31;83.29;103062.38;5025494;28;20033;-73
2023/05/03 09:30:45;;;;;;;0.80;0.80;;;;;;;9.34;82.99;103063.25;5026541;28;20048;-73
2023/05/03 09:33:18;;;;;;;1.10;1.00;;;;;;;9.33;82.63;103061.47;5026984;28;20040;-73
2023/05/03 09:35:57;;;;;;;1.55;1.30;;;;;;;9.41;82.27;103068.50;5027115;28;20032;-73
2023/05/03 09:38:26;;;;;;;1.45;1.30;;;;;;;9.47;83.28;103066.69;5026228;28;20044;-72
2023/05/03 09:40:51;;;;;;;1.75;1.20;;;;;;;9.48;83.25;103065.78;5026492;28;20059;-73
2023/05/03 09:43:17;;;;;;;3.15;1.25;;;;;;;9.44;82.36;103058.78;5027908;28;20037;-73
2023/05/03 09:45:43;;;;;;;2.83;1.30;;;;;;;9.48;83.08;103060.50;5028510;28;20033;-73
2023/05/03 09:48:08;;;;;;;1.73;1.30;;;;;;;9.52;81.72;103058.72;5028664;28;20044;-73
2023/05/03 09:50:35;;;;;;;1.20;1.10;;;;;;;9.51;81.15;103055.22;5028146;28;20550;-73
2023/05/03 09:53:05;;;;;;;1.33;1.13;;;;;;;9.54;81.61;103059.63;5026190;28;20060;-73
2023/05/03 09:55:35;;;;;;;1.60;1.23;;;;;;;9.58;80.61;103065.75;5026295;28;20091;-72
2023/05/03 09:58:05;;;;;;;1.48;1.10;;;;;;;9.47;79.89;103068.44;5010210;28;20043;-73
2023/05/03 10:00:42;;;;;;;1.27;1.17;;;;;;;9.42;80.19;103071.13;5011109;28;21046;-73
2023/05/03 10:03:10;;;;;;;3.20;1.50;;;;;;;9.48;81.63;103064.94;5028045;28;20124;-73
2023/05/03 10:05:44;;;;;;;2.58;1.20;;;;;;;9.53;81.17;103060.47;5020738;28;20037;-73
2023/05/03 10:08:10;;;;;;;2.72;1.80;;;;;;;9.58;81.42;103065.75;5026519;28;20118;-73
2023/05/03 10:10:37;;;;;;;1.67;1.50;;;;;;;9.60;81.63;103070.13;5024025;28;20220;-72
2023/05/03 10:13:03;;;;;;;2.33;1.40;;;;;;;9.64;81.00;103060.41;5023858;28;20103;-73
2023/05/03 10:15:30;;;;;;;1.50;1.40;;;;;;;9.62;80.45;103063.09;5026793;28;20060;-73
2023/05/03 10:17:57;;;;;;;4.47;1.35;;;;;;;9.65;81.74;103068.34;5026892;28;20068;-72
2023/05/03 10:20:31;;;;;;;1.45;1.30;;;;;;;9.71;80.56;103067.44;5008253;28;20067;-73
2023/05/03 10:23:03;;;;;;;3.47;1.60;;;;;;;9.75;80.42;103063.03;5027470;28;20181;-73
2023/05/03 10:25:29;;;;;;;2.83;1.70;;;;;;;9.85;82.41;103063.81;5027757;28;20041;-73
2023/05/03 10:28:08;;;;;;;1.50;1.40;;;;;;;9.94;80.75;103068.16;5024014;28;20106;-73
2023/05/03 10:30:38;;;;;;;2.33;1.40;;;;;;;9.99;80.69;103061.97;5027282;28;20115;-73
2023/05/03 10:33:13;;;;;;;2.63;1.70;;;;;;;10.11;81.10;103060.09;5025813;28;20416;-73
2023/05/03 10:35:48;;;;;;;3.08;1.60;;;;;;;10.18;81.01;103059.16;5027149;28;20972;-73
2023/05/03 10:38:21;;;;;;;2.13;1.70;;;;;;;10.25;77.77;103052.91;5009614;28;20041;-73
2023/05/03 10:40:47;;;;;;;1.50;1.40;;;;;;;10.23;79.22;103057.34;5006554;28;20041;-73
2023/05/03 10:43:28;;;;;;;1.92;1.20;;;;;;;10.28;78.63;103058.19;5027647;28;20657;-73
2023/05/03 10:45:57;;;;;;;2.33;1.58;;;;;;;10.32;79.88;103061.69;5026350;28;20045;-73
2023/05/03 10:48:23;;;;;;;1.60;1.50;;;;;;;10.39;80.36;103052.78;5038395;28;20060;-73
2023/05/03 10:50:50;;;;;;;2.42;1.40;;;;;;;10.45;80.52;103063.38;5025327;28;20596;-73
2023/05/03 10:53:37;;;;;;;2.15;1.40;;;;;;;10.49;79.63;103061.56;5024947;28;20052;-73
2023/05/03 10:56:07;;;;;;;1.70;1.55;;;;;;;10.47;80.06;103052.75;5026708;28;20037;-73
2023/05/03 10:58:39;;;;;;;1.90;1.60;;;;;;;10.45;80.44;103059.81;5022968;28;20128;-73
2023/05/03 11:01:06;;;;;;;2.47;1.50;;;;;;;10.48;80.46;103065.13;5024448;28;20145;-71
2023/05/03 11:03:59;;;;;;;3.03;1.88;;;;;;;10.41;78.64;103052.78;5023180;28;20037;-72
2023/05/03 11:06:40;;;;;;;2.28;1.80;;;;;;;10.31;80.42;103055.50;5026825;28;20893;-73
2023/05/03 11:09:07;;;;;;;2.33;1.40;;;;;;;10.26;80.90;103059.09;5025384;28;20047;-72
2023/05/03 11:11:35;;;;;;;2.47;1.70;;;;;;;10.19;79.57;103051.19;5025722;28;20487;-73
2023/05/03 11:14:00;;;;;;;1.88;1.60;;;;;;;10.07;80.58;103053.94;5026994;28;20705;-73
2023/05/03 11:16:26;;;;;;;3.58;1.75;;;;;;;10.00;80.44;103052.25;5024561;28;20111;-73
2023/05/03 11:18:52;;;;;;;2.30;1.60;;;;;;;9.97;80.86;103050.50;5008360;28;20095;-72
2023/05/03 11:21:18;;;;;;;3.20;1.80;;;;;;;10.07;81.63;103037.22;5025797;28;20087;-72
2023/05/03 11:23:44;;;;;;;2.60;1.60;;;;;;;10.12;81.26;103036.25;5026241;28;20040;-72
2023/05/03 11:26:10;;;;;;;2.38;1.50;;;;;;;10.17;81.21;103029.16;5025935;28;20041;-72
2023/05/03 11:28:42;;;;;;;2.85;1.55;;;;;;;10.23;81.11;103036.16;5023634;28;20431;-72
2023/05/03 11:31:10;;;;;;;1.88;1.60;;;;;;;10.25;80.60;103030.88;5026432;28;20095;-72